sensor_id;sensor_type;location;lat;lon;timestamp;pressure;altitude;pressure_sealevel;temperature;humidity
21086;BME280;72320;50.082;20.000;2023-11-21T00:01:28;98259.28;;;8.71;100.00
21086;BME280;72320;50.082;20.000;2023-11-21T00:03:01;98263.59;;;8.72;100.00
21086;BME280;72320;50.082;20.000;2023-11-21T00:04:35;98272.25;;;8.74;100.00
21086;BME280;72320;50.082;20.000;2023-11-21T00:06:08;98261.69;;;8.74;100.00
21086;BME280;72320;50.082;20.000;2023-11-21T00:07:42;98270.09;;;8.79;100.00
21086;BME280;72320;50.082;20.000;2023-11-21T00:09:16;98265.78;;;8.78;100.00
21086;BME280;72320;50.082;20.000;2023-11-21T00:10:50;98267.97;;;8.84;100.00
21086;BME280;72320;50.082;20.000;2023-11-21T00:12:23;98275.66;;;8.87;100.00
21086;BME280;72320;50.082;20.000;2023-11-21T00:13:56;98281.66;;;8.89;100.00
21086;BME280;72320;50.082;20.000;2023-11-21T00:15:29;98279.84;;;8.90;100.00
21086;BME280;72320;50.082;20.000;2023-11-21T00:17:03;98287.69;;;8.91;100.00
21086;BME280;72320;50.082;20.000;2023-11-21T00:18:37;98278.66;;;8.94;100.00
21086;BME280;72320;50.082;20.000;2023-11-21T00:20:10;98290.34;;;8.91;100.00
21086;BME280;72320;50.082;20.000;2023-11-21T00:21:44;98285.97;;;8.90;100.00
21086;BME280;72320;50.082;20.000;2023-11-21T00:23:17;98284.44;;;8.88;100.00
21086;BME280;72320;50.082;20.000;2023-11-21T00:24:50;98287.91;;;8.88;100.00
21086;BME280;72320;50.082;20.000;2023-11-21T00:26:23;98291.41;;;8.89;100.00
21086;BME280;72320;50.082;20.000;2023-11-21T00:27:56;98286.94;;;8.89;100.00
21086;BME280;72320;50.082;20.000;2023-11-21T00:29:30;98277.19;;;8.90;100.00
21086;BME280;72320;50.082;20.000;2023-11-21T00:31:03;98288.53;;;8.92;100.00
21086;BME280;72320;50.082;20.000;2023-11-21T00:32:38;98284.91;;;8.93;100.00
21086;BME280;72320;50.082;20.000;2023-11-21T00:34:12;98288.41;;;8.93;100.00
21086;BME280;72320;50.082;20.000;2023-11-21T00:35:46;98285.63;;;8.95;100.00
21086;BME280;72320;50.082;20.000;2023-11-21T00:37:19;98283.13;;;8.93;100.00
21086;BME280;72320;50.082;20.000;2023-11-21T00:38:52;98284.78;;;8.94;100.00
21086;BME280;72320;50.082;20.000;2023-11-21T00:40:25;98292.75;;;8.94;100.00
21086;BME280;72320;50.082;20.000;2023-11-21T00:41:59;98288.41;;;8.93;100.00
21086;BME280;72320;50.082;20.000;2023-11-21T00:43:32;98295.38;;;8.94;100.00
21086;BME280;72320;50.082;20.000;2023-11-21T00:45:06;98291.78;;;8.95;100.00
21086;BME280;72320;50.082;20.000;2023-11-21T01:16:43;98296.34;;;9.04;100.00
21086;BME280;72320;50.082;20.000;2023-11-21T01:18:17;98292.63;;;9.07;100.00
21086;BME280;72320;50.082;20.000;2023-11-21T01:19:50;98292.75;;;9.05;100.00
21086;BME280;72320;50.082;20.000;2023-11-21T01:21:24;98288.31;;;9.06;100.00
21086;BME280;72320;50.082;20.000;2023-11-21T01:22:57;98279.41;;;9.07;100.00
21086;BME280;72320;50.082;20.000;2023-11-21T01:24:30;98289.16;;;9.06;100.00
21086;BME280;72320;50.082;20.000;2023-11-21T01:26:03;98284.56;;;9.08;100.00
21086;BME280;72320;50.082;20.000;2023-11-21T01:27:37;98295.16;;;9.08;100.00
21086;BME280;72320;50.082;20.000;2023-11-21T01:29:13;98284.56;;;9.08;100.00
21086;BME280;72320;50.082;20.000;2023-11-21T01:30:48;98283.72;;;9.08;100.00
21086;BME280;72320;50.082;20.000;2023-11-21T01:32:22;98285.28;;;9.10;100.00
21086;BME280;72320;50.082;20.000;2023-11-21T01:33:56;98292.50;;;9.08;100.00
21086;BME280;72320;50.082;20.000;2023-11-21T01:35:32;98287.22;;;9.08;100.00
21086;BME280;72320;50.082;20.000;2023-11-21T01:37:06;98277.59;;;9.07;100.00
21086;BME280;72320;50.082;20.000;2023-11-21T01:38:39;98280.13;;;9.09;100.00
21086;BME280;72320;50.082;20.000;2023-11-21T01:40:12;98278.94;;;9.13;100.00
21086;BME280;72320;50.082;20.000;2023-11-21T01:41:46;98280.84;;;9.11;100.00
21086;BME280;72320;50.082;20.000;2023-11-21T01:43:19;98288.69;;;9.13;100.00
21086;BME280;72320;50.082;20.000;2023-11-21T01:44:53;98283.38;;;9.13;100.00
21086;BME280;72320;50.082;20.000;2023-11-21T01:46:26;98286.88;;;9.13;100.00
21086;BME280;72320;50.082;20.000;2023-11-21T01:48:01;98298.19;;;9.15;100.00
21086;BME280;72320;50.082;20.000;2023-11-21T01:49:36;98284.22;;;9.13;100.00
21086;BME280;72320;50.082;20.000;2023-11-21T01:51:10;98292.03;;;9.15;100.00
21086;BME280;72320;50.082;20.000;2023-11-21T01:52:46;98296.38;;;9.16;100.00
21086;BME280;72320;50.082;20.000;2023-11-21T01:54:22;98292.75;;;9.17;100.00
21086;BME280;72320;50.082;20.000;2023-11-21T01:55:56;98291.91;;;9.16;100.00
21086;BME280;72320;50.082;20.000;2023-11-21T01:57:30;98288.44;;;9.16;100.00
21086;BME280;72320;50.082;20.000;2023-11-21T01:59:10;98294.56;;;9.16;100.00
21086;BME280;72320;50.082;20.000;2023-11-21T02:00:55;98297.34;;;9.15;100.00
21086;BME280;72320;50.082;20.000;2023-11-21T02:03:06;98295.41;;;9.17;100.00
21086;BME280;72320;50.082;20.000;2023-11-21T02:05:30;98292.03;;;9.15;100.00
21086;BME280;72320;50.082;20.000;2023-11-21T02:07:51;98294.56;;;9.16;100.00
21086;BME280;72320;50.082;20.000;2023-11-21T02:09:49;98292.03;;;9.15;100.00
21086;BME280;72320;50.082;20.000;2023-11-21T02:11:58;98301.41;;;9.19;100.00
21086;BME280;72320;50.082;20.000;2023-11-21T02:14:00;98291.56;;;9.21;100.00
21086;BME280;72320;50.082;20.000;2023-11-21T02:16:32;98276.25;;;9.24;100.00
21086;BME280;72320;50.082;20.000;2023-11-21T02:18:45;98282.19;;;9.28;100.00
21086;BME280;72320;50.082;20.000;2023-11-21T02:20:51;98284.91;;;9.26;100.00
21086;BME280;72320;50.082;20.000;2023-11-21T02:22:57;98283.13;;;9.27;100.00
21086;BME280;72320;50.082;20.000;2023-11-21T02:25:33;98277.81;;;9.27;100.00
21086;BME280;72320;50.082;20.000;2023-11-21T02:28:12;98287.59;;;9.15;100.00
21086;BME280;72320;50.082;20.000;2023-11-21T02:29:57;98279.78;;;9.14;100.00
21086;BME280;72320;50.082;20.000;2023-11-21T02:32:06;98294.91;;;9.11;100.00
21086;BME280;72320;50.082;20.000;2023-11-21T02:34:28;98283.84;;;9.06;100.00
21086;BME280;72320;50.082;20.000;2023-11-21T02:36:29;98294.53;;;9.05;100.00
21086;BME280;72320;50.082;20.000;2023-11-21T02:38:38;98292.75;;;9.05;100.00
21086;BME280;72320;50.082;20.000;2023-11-21T02:40:36;98293.69;;;9.04;100.00
21086;BME280;72320;50.082;20.000;2023-11-21T02:42:58;98299.13;;;9.03;100.00
21086;BME280;72320;50.082;20.000;2023-11-21T02:47:26;98292.75;;;9.05;100.00
21086;BME280;72320;50.082;20.000;2023-11-21T02:49:20;98297.56;;;9.00;100.00
21086;BME280;72320;50.082;20.000;2023-11-21T02:51:10;98290.69;;;8.98;100.00
21086;BME280;72320;50.082;20.000;2023-11-21T02:53:20;98290.69;;;8.87;100.00
21086;BME280;72320;50.082;20.000;2023-11-21T02:57:39;98290.91;;;8.83;100.00
21086;BME280;72320;50.082;20.000;2023-11-21T02:59:44;98303.06;;;8.86;100.00
21086;BME280;72320;50.082;20.000;2023-11-21T03:01:53;98295.84;;;8.88;100.00
21086;BME280;72320;50.082;20.000;2023-11-21T03:04:57;98309.09;;;8.88;100.00
21086;BME280;72320;50.082;20.000;2023-11-21T03:09:41;98303.19;;;8.84;100.00
21086;BME280;72320;50.082;20.000;2023-11-21T03:11:46;98311.22;;;8.83;100.00
21086;BME280;72320;50.082;20.000;2023-11-21T03:13:56;98307.66;;;8.84;100.00
21086;BME280;72320;50.082;20.000;2023-11-21T03:16:08;98297.16;;;8.82;100.00
21086;BME280;72320;50.082;20.000;2023-11-21T03:18:14;98307.66;;;8.84;100.00
21086;BME280;72320;50.082;20.000;2023-11-21T03:20:21;98307.75;;;8.82;100.00
21086;BME280;72320;50.082;20.000;2023-11-21T03:21:54;98311.97;;;8.85;100.00
21086;BME280;72320;50.082;20.000;2023-11-21T03:23:28;98309.41;;;8.83;100.00
21086;BME280;72320;50.082;20.000;2023-11-21T03:25:01;98312.19;;;8.82;100.00
21086;BME280;72320;50.082;20.000;2023-11-21T03:26:34;98299.09;;;8.80;100.00
21086;BME280;72320;50.082;20.000;2023-11-21T03:28:07;98307.16;;;8.79;100.00
21086;BME280;72320;50.082;20.000;2023-11-21T03:29:41;98310.38;;;8.82;100.00
21086;BME280;72320;50.082;20.000;2023-11-21T03:31:17;98309.22;;;8.87;100.00
21086;BME280;72320;50.082;20.000;2023-11-21T03:32:50;98308.97;;;8.90;100.00
21086;BME280;72320;50.082;20.000;2023-11-21T03:34:28;98315.09;;;8.90;100.00
21086;BME280;72320;50.082;20.000;2023-11-21T03:36:01;98306.94;;;8.93;100.00
21086;BME280;72320;50.082;20.000;2023-11-21T03:37:35;98316.44;;;8.96;100.00
21086;BME280;72320;50.082;20.000;2023-11-21T03:39:09;98307.44;;;8.98;100.00
21086;BME280;72320;50.082;20.000;2023-11-21T03:40:43;98315.47;;;8.97;100.00
21086;BME280;72320;50.082;20.000;2023-11-21T03:42:16;98317.78;;;9.01;100.00
21086;BME280;72320;50.082;20.000;2023-11-21T03:43:50;98317.91;;;9.00;100.00
21086;BME280;72320;50.082;20.000;2023-11-21T03:45:26;98311.84;;;8.98;100.00
21086;BME280;72320;50.082;20.000;2023-11-21T03:46:59;98320.75;;;8.97;100.00
21086;BME280;72320;50.082;20.000;2023-11-21T03:48:33;98324.16;;;8.99;100.00
21086;BME280;72320;50.082;20.000;2023-11-21T03:50:06;98320.41;;;9.01;100.00
21086;BME280;72320;50.082;20.000;2023-11-21T03:51:39;98321.38;;;9.00;100.00
21086;BME280;72320;50.082;20.000;2023-11-21T03:53:12;98324.75;;;9.02;100.00
21086;BME280;72320;50.082;20.000;2023-11-21T03:54:46;98323.19;;;9.00;100.00
21086;BME280;72320;50.082;20.000;2023-11-21T03:56:19;98318.72;;;9.00;100.00
21086;BME280;72320;50.082;20.000;2023-11-21T03:57:52;98318.94;;;8.97;100.00
21086;BME280;72320;50.082;20.000;2023-11-21T03:59:25;98326.31;;;8.94;100.00
21086;BME280;72320;50.082;20.000;2023-11-21T04:00:58;98321.84;;;8.94;100.00
21086;BME280;72320;50.082;20.000;2023-11-21T04:02:32;98320.16;;;8.93;100.00
21086;BME280;72320;50.082;20.000;2023-11-21T04:04:05;98319.91;;;8.96;100.00
21086;BME280;72320;50.082;20.000;2023-11-21T04:05:38;98312.09;;;8.95;100.00
21086;BME280;72320;50.082;20.000;2023-11-21T04:07:12;98320.88;;;8.95;100.00
21086;BME280;72320;50.082;20.000;2023-11-21T04:08:45;98319.53;;;8.90;100.00
21086;BME280;72320;50.082;20.000;2023-11-21T04:10:18;98324.97;;;8.88;100.00
21086;BME280;72320;50.082;20.000;2023-11-21T04:11:52;98322.44;;;8.87;100.00
21086;BME280;72320;50.082;20.000;2023-11-21T04:13:26;98331.22;;;8.87;100.00
21086;BME280;72320;50.082;20.000;2023-11-21T04:14:59;98336.75;;;8.84;100.00
21086;BME280;72320;50.082;20.000;2023-11-21T04:16:32;98332.19;;;8.86;100.00
21086;BME280;72320;50.082;20.000;2023-11-21T04:18:05;98325.94;;;8.87;100.00
21086;BME280;72320;50.082;20.000;2023-11-21T04:19:38;98325.94;;;8.87;100.00
21086;BME280;72320;50.082;20.000;2023-11-21T04:21:11;98329.28;;;8.89;100.00
21086;BME280;72320;50.082;20.000;2023-11-21T04:22:46;98325.22;;;8.85;100.00
21086;BME280;72320;50.082;20.000;2023-11-21T04:24:22;98325.44;;;8.82;100.00
21086;BME280;72320;50.082;20.000;2023-11-21T04:25:55;98317.28;;;8.85;100.00
21086;BME280;72320;50.082;20.000;2023-11-21T04:27:28;98324.47;;;8.83;100.00
21086;BME280;72320;50.082;20.000;2023-11-21T04:29:01;98324.47;;;8.83;100.00
21086;BME280;72320;50.082;20.000;2023-11-21T04:30:34;98316.66;;;8.81;100.00
21086;BME280;72320;50.082;20.000;2023-11-21T04:32:07;98321.34;;;8.78;100.00
21086;BME280;72320;50.082;20.000;2023-11-21T04:33:44;98326.63;;;8.78;100.00
21086;BME280;72320;50.082;20.000;2023-11-21T04:35:17;98324.72;;;8.80;100.00
21086;BME280;72320;50.082;20.000;2023-11-21T04:36:50;98326.75;;;8.76;100.00
21086;BME280;72320;50.082;20.000;2023-11-21T04:38:24;98334.44;;;8.79;100.00
21086;BME280;72320;50.082;20.000;2023-11-21T04:40:00;98324.31;;;8.73;100.00
21086;BME280;72320;50.082;20.000;2023-11-21T04:41:33;98341.53;;;8.79;100.00
21086;BME280;72320;50.082;20.000;2023-11-21T04:43:06;98335.28;;;8.80;100.00
21086;BME280;72320;50.082;20.000;2023-11-21T04:44:40;98341.53;;;8.79;100.00
21086;BME280;72320;50.082;20.000;2023-11-21T04:46:15;98338.19;;;8.77;100.00
21086;BME280;72320;50.082;20.000;2023-11-21T04:47:49;98353.09;;;8.78;100.00
21086;BME280;72320;50.082;20.000;2023-11-21T04:49:23;98346.13;;;8.77;100.00
21086;BME280;72320;50.082;20.000;2023-11-21T04:50:56;98352.34;;;8.76;100.00
21086;BME280;72320;50.082;20.000;2023-11-21T04:52:29;98348.00;;;8.75;100.00
21086;BME280;72320;50.082;20.000;2023-11-21T04:54:03;98346.34;;;8.74;100.00
21086;BME280;72320;50.082;20.000;2023-11-21T04:55:36;98347.19;;;8.74;100.00
21086;BME280;72320;50.082;20.000;2023-11-21T04:57:09;98352.59;;;8.73;100.00
21086;BME280;72320;50.082;20.000;2023-11-21T04:58:43;98356.91;;;8.74;100.00
21086;BME280;72320;50.082;20.000;2023-11-21T05:00:16;98349.94;;;8.73;100.00
21086;BME280;72320;50.082;20.000;2023-11-21T05:01:50;98354.50;;;8.71;100.00
21086;BME280;72320;50.082;20.000;2023-11-21T05:03:23;98352.84;;;8.70;100.00
21086;BME280;72320;50.082;20.000;2023-11-21T05:04:57;98359.81;;;8.71;100.00
21086;BME280;72320;50.082;20.000;2023-11-21T05:06:30;98355.47;;;8.70;100.00
21086;BME280;72320;50.082;20.000;2023-11-21T05:08:04;98342.47;;;8.67;100.00
21086;BME280;72320;50.082;20.000;2023-11-21T05:09:42;98352.22;;;8.66;100.00
21086;BME280;72320;50.082;20.000;2023-11-21T05:11:26;98357.75;;;8.63;100.00
21086;BME280;72320;50.082;20.000;2023-11-21T05:12:59;98356.16;;;8.61;100.00
21086;BME280;72320;50.082;20.000;2023-11-21T05:14:35;98354.72;;;8.56;100.00
21086;BME280;72320;50.082;20.000;2023-11-21T05:16:09;98352.19;;;8.55;100.00
21086;BME280;72320;50.082;20.000;2023-11-21T05:17:43;98356.00;;;8.51;100.00
21086;BME280;72320;50.082;20.000;2023-11-21T05:19:17;98362.25;;;8.50;100.00
21086;BME280;72320;50.082;20.000;2023-11-21T05:20:53;98365.84;;;8.49;100.00
21086;BME280;72320;50.082;20.000;2023-11-21T05:22:26;98364.06;;;8.49;100.00
21086;BME280;72320;50.082;20.000;2023-11-21T05:24:00;98365.03;;;8.48;100.00
21086;BME280;72320;50.082;20.000;2023-11-21T05:25:34;98366.69;;;8.49;100.00
21086;BME280;72320;50.082;20.000;2023-11-21T05:27:14;98364.91;;;8.50;100.00
21086;BME280;72320;50.082;20.000;2023-11-21T05:28:47;98370.31;;;8.48;100.00
21086;BME280;72320;50.082;20.000;2023-11-21T05:30:21;98373.78;;;8.49;100.00
21086;BME280;72320;50.082;20.000;2023-11-21T05:31:55;98370.41;;;8.47;100.00
21086;BME280;72320;50.082;20.000;2023-11-21T05:33:29;98373.03;;;8.47;100.00
21086;BME280;72320;50.082;20.000;2023-11-21T05:35:02;98374.00;;;8.46;100.00
21086;BME280;72320;50.082;20.000;2023-11-21T05:36:36;98381.84;;;8.47;100.00
21086;BME280;72320;50.082;20.000;2023-11-21T05:38:09;98383.53;;;8.48;100.00
21086;BME280;72320;50.082;20.000;2023-11-21T05:39:42;98380.13;;;8.46;100.00
21086;BME280;72320;50.082;20.000;2023-11-21T05:41:15;98385.09;;;8.51;100.00
21086;BME280;72320;50.082;20.000;2023-11-21T05:42:48;98385.81;;;8.53;100.00
21086;BME280;72320;50.082;20.000;2023-11-21T05:44:21;98387.75;;;8.51;100.00
21086;BME280;72320;50.082;20.000;2023-11-21T05:45:55;98387.75;;;8.51;100.00
21086;BME280;72320;50.082;20.000;2023-11-21T05:47:28;98393.88;;;8.51;100.00
21086;BME280;72320;50.082;20.000;2023-11-21T05:49:01;98395.44;;;8.54;100.00
21086;BME280;72320;50.082;20.000;2023-11-21T05:50:34;98396.19;;;8.56;100.00
21086;BME280;72320;50.082;20.000;2023-11-21T05:52:07;98391.94;;;8.53;100.00
21086;BME280;72320;50.082;20.000;2023-11-21T05:53:41;98397.22;;;8.53;100.00
21086;BME280;72320;50.082;20.000;2023-11-21T05:55:14;98398.06;;;8.54;100.00
21086;BME280;72320;50.082;20.000;2023-11-21T05:56:48;98402.44;;;8.55;100.00
21086;BME280;72320;50.082;20.000;2023-11-21T05:58:21;98399.78;;;8.55;100.00
21086;BME280;72320;50.082;20.000;2023-11-21T05:59:54;98410.25;;;8.56;100.00
21086;BME280;72320;50.082;20.000;2023-11-21T06:01:27;98402.31;;;8.56;100.00
21086;BME280;72320;50.082;20.000;2023-11-21T06:03:02;98405.94;;;8.55;100.00
21086;BME280;72320;50.082;20.000;2023-11-21T06:04:35;98407.94;;;8.52;100.00
21086;BME280;72320;50.082;20.000;2023-11-21T06:06:08;98411.22;;;8.55;100.00
21086;BME280;72320;50.082;20.000;2023-11-21T06:07:42;98417.22;;;8.57;100.00
21086;BME280;72320;50.082;20.000;2023-11-21T06:09:15;98419.03;;;8.57;100.00
21086;BME280;72320;50.082;20.000;2023-11-21T06:10:48;98413.75;;;8.57;100.00
21086;BME280;72320;50.082;20.000;2023-11-21T06:12:21;98421.56;;;8.59;100.00
21086;BME280;72320;50.082;20.000;2023-11-21T06:13:54;98417.09;;;8.59;100.00
21086;BME280;72320;50.082;20.000;2023-11-21T06:15:27;98422.50;;;8.57;100.00
21086;BME280;72320;50.082;20.000;2023-11-21T06:17:01;98433.81;;;8.60;100.00
21086;BME280;72320;50.082;20.000;2023-11-21T06:18:34;98433.59;;;8.63;100.00
21086;BME280;72320;50.082;20.000;2023-11-21T06:20:11;98435.28;;;8.64;100.00
21086;BME280;72320;50.082;20.000;2023-11-21T06:21:48;98433.38;;;8.66;100.00
21086;BME280;72320;50.082;20.000;2023-11-21T06:23:21;98434.22;;;8.66;100.00
21086;BME280;72320;50.082;20.000;2023-11-21T06:24:55;98438.66;;;8.66;100.00
21086;BME280;72320;50.082;20.000;2023-11-21T06:26:28;98438.91;;;8.63;100.00
21086;BME280;72320;50.082;20.000;2023-11-21T06:28:01;98430.00;;;8.64;100.00
21086;BME280;72320;50.082;20.000;2023-11-21T06:29:34;98428.19;;;8.64;100.00
21086;BME280;72320;50.082;20.000;2023-11-21T06:31:07;98432.53;;;8.65;100.00
21086;BME280;72320;50.082;20.000;2023-11-21T06:32:42;98433.13;;;8.69;100.00
21086;BME280;72320;50.082;20.000;2023-11-21T06:34:16;98441.94;;;8.69;100.00
21086;BME280;72320;50.082;20.000;2023-11-21T06:35:49;98429.44;;;8.71;100.00
21086;BME280;72320;50.082;20.000;2023-11-21T06:37:22;98437.13;;;8.74;100.00
21086;BME280;72320;50.082;20.000;2023-11-21T06:38:57;98439.91;;;8.73;100.00
21086;BME280;72320;50.082;20.000;2023-11-21T06:40:30;98436.41;;;8.72;100.00
21086;BME280;72320;50.082;20.000;2023-11-21T06:42:03;98434.59;;;8.73;100.00
21086;BME280;72320;50.082;20.000;2023-11-21T06:43:37;98444.94;;;8.76;100.00
21086;BME280;72320;50.082;20.000;2023-11-21T06:45:11;98437.25;;;8.73;100.00
21086;BME280;72320;50.082;20.000;2023-11-21T06:46:44;98446.66;;;8.77;100.00
21086;BME280;72320;50.082;20.000;2023-11-21T06:48:18;98438.81;;;8.75;100.00
21086;BME280;72320;50.082;20.000;2023-11-21T06:49:52;98443.38;;;8.73;100.00
21086;BME280;72320;50.082;20.000;2023-11-21T06:51:25;98459.97;;;8.75;100.00
21086;BME280;72320;50.082;20.000;2023-11-21T06:52:59;98448.56;;;8.75;100.00
21086;BME280;72320;50.082;20.000;2023-11-21T06:54:32;98457.47;;;8.74;100.00
21086;BME280;72320;50.082;20.000;2023-11-21T06:56:15;98452.16;;;8.74;100.00
21086;BME280;72320;50.082;20.000;2023-11-21T06:57:48;98453.84;;;8.75;100.00
21086;BME280;72320;50.082;20.000;2023-11-21T06:59:22;98454.59;;;8.77;100.00
21086;BME280;72320;50.082;20.000;2023-11-21T07:00:55;98446.03;;;8.73;100.00
21086;BME280;72320;50.082;20.000;2023-11-21T07:02:28;98456.28;;;8.78;100.00
21086;BME280;72320;50.082;20.000;2023-11-21T07:04:07;98464.44;;;8.75;100.00
21086;BME280;72320;50.082;20.000;2023-11-21T07:05:40;98461.91;;;8.73;100.00
21086;BME280;72320;50.082;20.000;2023-11-21T07:07:17;98466.13;;;8.76;100.00
21086;BME280;72320;50.082;20.000;2023-11-21T07:08:50;98457.84;;;8.80;100.00
21086;BME280;72320;50.082;20.000;2023-11-21T07:10:24;98462.28;;;8.80;100.00
21086;BME280;72320;50.082;20.000;2023-11-21T07:11:57;98459.78;;;8.78;100.00
21086;BME280;72320;50.082;20.000;2023-11-21T07:13:31;98465.91;;;8.79;100.00
21086;BME280;72320;50.082;20.000;2023-11-21T07:15:05;98464.09;;;8.79;100.00
21086;BME280;72320;50.082;20.000;2023-11-21T07:16:38;98472.66;;;8.83;100.00
21086;BME280;72320;50.082;20.000;2023-11-21T07:18:12;98469.06;;;8.84;100.00
21086;BME280;72320;50.082;20.000;2023-11-21T07:19:45;98473.88;;;8.90;100.00
21086;BME280;72320;50.082;20.000;2023-11-21T07:21:19;98472.06;;;8.91;100.00
21086;BME280;72320;50.082;20.000;2023-11-21T07:22:53;98466.91;;;8.89;100.00
21086;BME280;72320;50.082;20.000;2023-11-21T07:24:26;98470.63;;;8.87;100.00
21086;BME280;72320;50.082;20.000;2023-11-21T07:26:00;98469.91;;;8.84;100.00
21086;BME280;72320;50.082;20.000;2023-11-21T07:27:33;98476.03;;;8.85;100.00
21086;BME280;72320;50.082;20.000;2023-11-21T07:29:09;98477.72;;;8.86;100.00
21086;BME280;72320;50.082;20.000;2023-11-21T07:30:42;98472.44;;;8.86;100.00
21086;BME280;72320;50.082;20.000;2023-11-21T07:32:15;98468.00;;;8.87;100.00
21086;BME280;72320;50.082;20.000;2023-11-21T07:33:48;98473.88;;;8.90;100.00
21086;BME280;72320;50.082;20.000;2023-11-21T07:35:22;98468.59;;;8.90;100.00
21086;BME280;72320;50.082;20.000;2023-11-21T07:36:55;98481.72;;;8.92;100.00
21086;BME280;72320;50.082;20.000;2023-11-21T07:38:28;98477.16;;;8.94;100.00
21086;BME280;72320;50.082;20.000;2023-11-21T07:40:01;98484.84;;;8.97;100.00
21086;BME280;72320;50.082;20.000;2023-11-21T07:41:34;98481.25;;;8.98;100.00
21086;BME280;72320;50.082;20.000;2023-11-21T07:43:07;98482.84;;;9.00;100.00
21086;BME280;72320;50.082;20.000;2023-11-21T07:44:41;98476.59;;;9.01;100.00
21086;BME280;72320;50.082;20.000;2023-11-21T11:53:59;98530.56;;;10.27;100.00
21086;BME280;72320;50.082;20.000;2023-11-21T11:55:32;98535.03;;;10.37;100.00
21086;BME280;72320;50.082;20.000;2023-11-21T11:57:07;98539.09;;;10.41;100.00
21086;BME280;72320;50.082;20.000;2023-11-21T11:58:41;98536.59;;;10.40;100.00
21086;BME280;72320;50.082;20.000;2023-11-21T12:01:51;98539.34;;;10.49;100.00
21086;BME280;72320;50.082;20.000;2023-11-21T12:03:24;98543.09;;;10.58;100.00
21086;BME280;72320;50.082;20.000;2023-11-21T12:04:57;98539.06;;;10.64;100.00
21086;BME280;72320;50.082;20.000;2023-11-21T12:06:35;98538.59;;;10.70;100.00
21086;BME280;72320;50.082;20.000;2023-11-21T12:08:08;98542.22;;;10.80;100.00
21086;BME280;72320;50.082;20.000;2023-11-21T12:09:41;98543.84;;;10.92;100.00
21086;BME280;72320;50.082;20.000;2023-11-21T12:11:17;98528.25;;;10.99;100.00
21086;BME280;72320;50.082;20.000;2023-11-21T12:14:37;98540.19;;;11.16;100.00
21086;BME280;72320;50.082;20.000;2023-11-21T12:16:10;98537.59;;;11.25;100.00
21086;BME280;72320;50.082;20.000;2023-11-21T12:17:45;98532.63;;;11.32;100.00
21086;BME280;72320;50.082;20.000;2023-11-21T12:19:19;98533.78;;;11.39;100.00
21086;BME280;72320;50.082;20.000;2023-11-21T12:20:53;98532.81;;;11.40;100.00
21086;BME280;72320;50.082;20.000;2023-11-21T12:22:26;98537.28;;;11.40;100.00
21086;BME280;72320;50.082;20.000;2023-11-21T12:23:59;98544.28;;;11.41;100.00
21086;BME280;72320;50.082;20.000;2023-11-21T12:25:33;98539.34;;;11.36;100.00
21086;BME280;72320;50.082;20.000;2023-11-21T12:27:06;98542.25;;;11.33;100.00
21086;BME280;72320;50.082;20.000;2023-11-21T12:28:39;98540.25;;;11.25;100.00
21086;BME280;72320;50.082;20.000;2023-11-21T12:30:13;98542.19;;;11.23;100.00
21086;BME280;72320;50.082;20.000;2023-11-21T12:31:49;98542.06;;;11.25;100.00
21086;BME280;72320;50.082;20.000;2023-11-21T12:33:22;98550.88;;;11.25;100.00
21086;BME280;72320;50.082;20.000;2023-11-21T12:34:55;98541.94;;;11.26;100.00
21086;BME280;72320;50.082;20.000;2023-11-21T12:36:29;98545.06;;;11.31;100.00
21086;BME280;72320;50.082;20.000;2023-11-21T12:38:05;98539.94;;;11.40;100.00
21086;BME280;72320;50.082;20.000;2023-11-21T12:39:39;98532.94;;;11.39;100.00
21086;BME280;72320;50.082;20.000;2023-11-21T12:41:15;98540.72;;;11.30;100.00
21086;BME280;72320;50.082;20.000;2023-11-21T12:42:54;98537.47;;;11.27;100.00
21086;BME280;72320;50.082;20.000;2023-11-21T12:44:27;98539.28;;;11.26;100.00
21086;BME280;72320;50.082;20.000;2023-11-21T12:46:08;98526.97;;;11.25;100.00
21086;BME280;72320;50.082;20.000;2023-11-21T12:47:43;98536.03;;;11.23;100.00
21086;BME280;72320;50.082;20.000;2023-11-21T12:49:17;98533.41;;;11.12;100.00
21086;BME280;72320;50.082;20.000;2023-11-21T12:50:51;98530.69;;;11.02;100.00
21086;BME280;72320;50.082;20.000;2023-11-21T12:52:24;98542.84;;;11.04;100.00
21086;BME280;72320;50.082;20.000;2023-11-21T12:53:59;98543.00;;;11.03;100.00
21086;BME280;72320;50.082;20.000;2023-11-21T12:55:33;98543.34;;;10.98;100.00
21086;BME280;72320;50.082;20.000;2023-11-21T12:57:06;98543.84;;;10.92;100.00
21086;BME280;72320;50.082;20.000;2023-11-21T12:58:46;98543.75;;;10.83;100.00
21086;BME280;72320;50.082;20.000;2023-11-21T13:00:20;98537.75;;;10.69;100.00
21086;BME280;72320;50.082;20.000;2023-11-21T13:01:54;98547.44;;;10.59;100.00
21086;BME280;72320;50.082;20.000;2023-11-21T13:03:28;98547.69;;;10.45;100.00
21086;BME280;72320;50.082;20.000;2023-11-21T13:05:01;98551.91;;;10.36;100.00
21086;BME280;72320;50.082;20.000;2023-11-21T13:06:34;98548.91;;;10.30;100.00
21086;BME280;72320;50.082;20.000;2023-11-21T13:08:09;98549.13;;;10.27;100.00
21086;BME280;72320;50.082;20.000;2023-11-21T13:09:44;98550.09;;;10.26;100.00
21086;BME280;72320;50.082;20.000;2023-11-21T13:11:17;98555.00;;;10.19;100.00
21086;BME280;72320;50.082;20.000;2023-11-21T13:12:52;98555.25;;;10.16;100.00
21086;BME280;72320;50.082;20.000;2023-11-21T13:14:29;98551.00;;;10.13;100.00
21086;BME280;72320;50.082;20.000;2023-11-21T13:16:03;98562.44;;;10.14;100.00
21086;BME280;72320;50.082;20.000;2023-11-21T13:17:37;98556.56;;;10.10;100.00
21086;BME280;72320;50.082;20.000;2023-11-21T13:19:10;98554.03;;;10.09;100.00